Time;durP1;ratioP1;P1;durP2;ratioP2;P2;SDS_P1;SDS_P2;PMS_P1;PMS_P2;Temp;Humidity;BMP_temperature;BMP_pressure;BME280_temperature;BME280_humidity;BME280_pressure;Samples;Min_cycle;Max_cycle;Signal;HPM_P1;HPM_P2
2023/09/26 00:01:30;;;;;;;3.90;3.22;;;15.30;99.90;;;;;;5096114;28;20036;-68
2023/09/26 00:03:56;;;;;;;3.92;2.88;;;15.20;99.90;;;;;;5106526;28;20115;-68
2023/09/26 00:06:23;;;;;;;6.82;3.03;;;15.20;99.90;;;;;;5106610;28;20107;-68
2023/09/26 00:08:52;;;;;;;4.45;3.38;;;15.20;99.90;;;;;;5106771;28;20100;-68
2023/09/26 00:11:19;;;;;;;3.42;3.13;;;15.10;99.90;;;;;;5107106;27;20024;-68
2023/09/26 00:13:45;;;;;;;3.53;2.95;;;15.10;99.90;;;;;;5106620;28;20039;-68
2023/09/26 00:16:11;;;;;;;3.22;2.75;;;15.10;99.90;;;;;;5106562;28;20028;-68
2023/09/26 00:18:40;;;;;;;3.67;2.97;;;15.10;99.90;;;;;;5105572;28;20035;-68
2023/09/26 00:21:12;;;;;;;4.28;3.55;;;15.00;99.90;;;;;;5103352;28;20543;-68
2023/09/26 00:23:37;;;;;;;7.55;3.50;;;15.00;99.90;;;;;;5103851;28;20114;-68
2023/09/26 00:26:04;;;;;;;5.50;3.50;;;15.00;99.90;;;;;;5106733;28;20111;-68
2023/09/26 00:28:30;;;;;;;5.60;3.92;;;15.00;99.90;;;;;;5103443;28;20143;-68
2023/09/26 00:30:59;;;;;;;4.50;3.78;;;15.00;99.90;;;;;;5106807;28;20578;-68
2023/09/26 00:33:25;;;;;;;6.25;4.40;;;15.00;99.90;;;;;;5104760;28;20024;-68
2023/09/26 00:35:51;;;;;;;4.70;4.15;;;15.00;99.90;;;;;;5104011;28;20034;-68
2023/09/26 00:38:17;;;;;;;4.43;3.95;;;15.00;99.90;;;;;;5105754;28;20482;-68
2023/09/26 00:40:43;;;;;;;5.18;3.80;;;15.00;99.90;;;;;;5101507;28;20092;-68
2023/09/26 00:43:09;;;;;;;6.60;4.25;;;15.00;99.90;;;;;;5106052;28;20028;-68
2023/09/26 00:45:36;;;;;;;6.47;5.05;;;15.00;99.90;;;;;;5104753;28;20042;-68
2023/09/26 00:48:05;;;;;;;6.80;5.13;;;15.00;99.90;;;;;;5104691;28;20416;-68
2023/09/26 00:50:31;;;;;;;6.60;4.82;;;15.10;99.90;;;;;;5104510;28;20059;-68
2023/09/26 00:52:58;;;;;;;5.55;4.65;;;15.00;99.90;;;;;;5105660;28;20028;-68
2023/09/26 00:55:24;;;;;;;7.57;4.72;;;15.10;99.90;;;;;;5104712;28;20028;-68
2023/09/26 00:57:52;;;;;;;6.55;4.80;;;15.10;99.90;;;;;;5105812;28;20069;-68
2023/09/26 01:00:19;;;;;;;7.05;4.68;;;15.10;99.90;;;;;;5100540;28;20548;-68
2023/09/26 01:02:45;;;;;;;6.50;5.30;;;15.10;99.90;;;;;;5104665;28;20035;-68
2023/09/26 01:05:11;;;;;;;7.90;4.93;;;15.10;99.90;;;;;;5102720;28;20031;-68
2023/09/26 01:07:39;;;;;;;5.72;4.07;;;15.10;99.90;;;;;;5103620;28;20036;-68
2023/09/26 01:10:08;;;;;;;5.10;4.18;;;15.10;99.90;;;;;;5104337;28;20027;-68
2023/09/26 01:12:35;;;;;;;4.93;3.85;;;15.10;99.90;;;;;;5104003;28;20377;-68
2023/09/26 01:15:01;;;;;;;4.57;4.07;;;15.10;99.90;;;;;;5103738;28;20565;-68
2023/09/26 01:17:32;;;;;;;5.50;3.90;;;15.10;99.90;;;;;;5101181;28;20110;-68
2023/09/26 01:19:59;;;;;;;4.25;3.78;;;15.10;99.90;;;;;;5098764;28;20039;-68
2023/09/26 01:22:27;;;;;;;5.13;3.88;;;15.10;99.90;;;;;;5082387;28;20068;-68
2023/09/26 01:24:54;;;;;;;5.03;4.25;;;15.10;99.90;;;;;;5103915;28;20032;-68
2023/09/26 01:27:20;;;;;;;4.05;3.67;;;15.10;99.90;;;;;;5092081;28;20039;-68
2023/09/26 01:29:49;;;;;;;5.65;3.67;;;15.10;99.90;;;;;;5105514;28;20031;-68
2023/09/26 01:32:14;;;;;;;5.05;3.47;;;15.00;99.90;;;;;;5100994;28;20076;-68
2023/09/26 01:34:40;;;;;;;4.20;3.78;;;15.00;99.90;;;;;;5100783;28;20031;-68
2023/09/26 01:37:07;;;;;;;4.35;3.40;;;15.00;99.90;;;;;;5103616;28;20677;-68
2023/09/26 01:39:32;;;;;;;4.65;3.70;;;15.00;99.90;;;;;;5103773;28;20043;-68
2023/09/26 01:41:58;;;;;;;4.63;3.28;;;15.00;99.90;;;;;;5102261;28;20062;-68
2023/09/26 01:44:24;;;;;;;5.30;3.45;;;14.90;99.90;;;;;;5100773;28;20029;-68
2023/09/26 01:46:50;;;;;;;6.82;3.22;;;14.90;99.90;;;;;;5103276;28;20031;-68
2023/09/26 01:49:15;;;;;;;4.63;2.80;;;14.80;99.90;;;;;;5103729;28;20032;-68
2023/09/26 01:51:41;;;;;;;5.30;3.47;;;14.80;99.90;;;;;;5105500;28;20031;-68
2023/09/26 01:54:07;;;;;;;3.55;2.90;;;14.80;99.90;;;;;;5103219;28;20123;-68
2023/09/26 01:56:33;;;;;;;4.40;3.30;;;14.80;99.90;;;;;;5103158;28;20050;-68
2023/09/26 01:59:00;;;;;;;3.50;3.20;;;14.80;99.90;;;;;;5102403;28;20051;-68
2023/09/26 02:01:25;;;;;;;4.20;3.70;;;14.80;99.90;;;;;;5103247;28;20031;-68
2023/09/26 02:03:51;;;;;;;6.55;4.57;;;14.70;99.90;;;;;;5098883;28;20700;-68
2023/09/26 02:06:17;;;;;;;5.35;4.20;;;14.70;99.90;;;;;;5098869;28;20052;-68
2023/09/26 02:08:43;;;;;;;4.97;4.20;;;14.70;99.90;;;;;;5103286;28;20081;-68
2023/09/26 02:11:08;;;;;;;5.43;4.13;;;14.70;99.90;;;;;;5095862;28;20036;-68
2023/09/26 02:13:34;;;;;;;4.70;3.88;;;14.80;99.90;;;;;;5103254;28;20079;-68
2023/09/26 02:16:00;;;;;;;5.60;3.97;;;14.80;99.90;;;;;;5100028;28;20503;-67
2023/09/26 02:18:26;;;;;;;3.50;3.10;;;14.80;99.90;;;;;;5104888;28;20031;-68
2023/09/26 02:20:52;;;;;;;5.78;4.20;;;14.70;99.90;;;;;;5109525;28;20403;-68
2023/09/26 02:23:19;;;;;;;6.18;4.13;;;14.70;99.90;;;;;;5107005;28;20027;-68
2023/09/26 02:25:52;;;;;;;4.78;3.90;;;14.70;99.90;;;;;;5109282;28;20024;-68
2023/09/26 02:28:18;;;;;;;7.70;4.63;;;14.60;99.90;;;;;;5108837;28;20643;-68
2023/09/26 02:30:44;;;;;;;6.30;4.28;;;14.60;99.90;;;;;;5107340;28;20088;-68
2023/09/26 02:33:10;;;;;;;5.13;4.15;;;14.60;99.90;;;;;;5107133;28;20519;-68
2023/09/26 02:35:36;;;;;;;5.78;4.43;;;14.60;99.90;;;;;;5108748;28;20024;-68
2023/09/26 02:38:02;;;;;;;5.28;4.20;;;14.60;99.90;;;;;;5108972;28;20033;-68
2023/09/26 02:40:28;;;;;;;5.75;4.25;;;14.60;99.90;;;;;;5104028;28;20074;-68
2023/09/26 02:42:54;;;;;;;6.53;4.38;;;14.60;99.90;;;;;;5104404;28;20040;-68
2023/09/26 02:45:20;;;;;;;6.97;3.97;;;14.60;99.90;;;;;;5106965;28;20026;-68
2023/09/26 02:47:46;;;;;;;7.28;3.97;;;14.50;99.90;;;;;;5107729;28;20578;-68
2023/09/26 02:50:12;;;;;;;4.70;3.72;;;14.50;99.90;;;;;;5104154;28;20130;-68
2023/09/26 02:52:41;;;;;;;4.55;3.65;;;14.50;99.90;;;;;;5108630;28;20059;-68
2023/09/26 02:55:07;;;;;;;5.30;3.85;;;14.40;99.90;;;;;;5106823;28;20035;-68
2023/09/26 02:57:34;;;;;;;4.60;3.83;;;14.30;99.90;;;;;;5106611;28;20448;-68
2023/09/26 03:00:14;;;;;;;4.28;3.63;;;14.30;99.90;;;;;;5108676;28;20031;-68
2023/09/26 03:02:41;;;;;;;4.00;3.35;;;14.20;99.90;;;;;;5106582;28;20562;-68
2023/09/26 03:05:09;;;;;;;5.57;3.38;;;14.10;99.90;;;;;;5107847;28;20130;-68
2023/09/26 03:07:35;;;;;;;3.85;3.17;;;14.10;99.90;;;;;;5106503;28;20051;-67
2023/09/26 03:10:01;;;;;;;5.78;3.95;;;14.10;99.90;;;;;;5106543;28;20028;-68
2023/09/26 03:12:27;;;;;;;4.43;3.65;;;14.10;99.90;;;;;;5106598;27;20059;-68
2023/09/26 03:14:54;;;;;;;4.85;3.83;;;14.00;99.90;;;;;;5095493;28;20032;-68
2023/09/26 03:17:19;;;;;;;5.65;4.30;;;14.00;99.90;;;;;;5106182;28;20055;-68
2023/09/26 03:19:45;;;;;;;7.05;4.68;;;14.00;99.90;;;;;;5106878;28;20548;-68
2023/09/26 03:22:11;;;;;;;5.32;4.38;;;14.00;99.90;;;;;;5101038;28;20750;-68
2023/09/26 03:24:37;;;;;;;6.78;5.20;;;14.00;99.90;;;;;;5106215;28;20057;-67
2023/09/26 03:27:03;;;;;;;7.13;5.97;;;14.00;99.90;;;;;;5104179;28;20036;-68
2023/09/26 03:29:29;;;;;;;8.25;4.97;;;14.10;99.90;;;;;;5103519;28;20019;-68
2023/09/26 03:31:54;;;;;;;7.35;6.10;;;14.10;99.90;;;;;;5106617;28;20643;-68
2023/09/26 03:34:20;;;;;;;8.68;6.80;;;14.10;99.90;;;;;;5101118;28;20043;-67
2023/09/26 03:36:46;;;;;;;8.23;6.45;;;14.20;99.90;;;;;;5104814;28;20050;-68
2023/09/26 03:39:12;;;;;;;9.40;7.07;;;14.20;99.90;;;;;;5105455;28;20053;-68
2023/09/26 03:41:38;;;;;;;15.27;7.15;;;14.20;99.90;;;;;;5104701;28;20487;-68
2023/09/26 03:44:04;;;;;;;7.70;6.35;;;14.20;99.90;;;;;;5104619;28;20034;-68
2023/09/26 03:46:32;;;;;;;10.32;7.30;;;14.20;99.90;;;;;;5106048;28;20024;-68
2023/09/26 03:48:58;;;;;;;8.25;6.15;;;14.20;99.90;;;;;;5104752;28;20042;-68
2023/09/26 03:51:24;;;;;;;7.80;5.90;;;14.30;99.90;;;;;;5106333;28;20020;-68
2023/09/26 03:53:49;;;;;;;8.07;5.70;;;14.30;99.90;;;;;;5106026;28;20043;-68
2023/09/26 03:56:15;;;;;;;8.48;6.57;;;14.30;99.90;;;;;;5104315;28;20051;-68
2023/09/26 03:58:41;;;;;;;8.18;6.88;;;14.30;99.90;;;;;;5106276;28;20074;-68
2023/09/26 04:01:16;;;;;;;7.97;6.70;;;14.20;99.90;;;;;;5104359;28;20042;-67
2023/09/26 04:03:46;;;;;;;10.00;6.70;;;14.20;99.90;;;;;;5104680;28;20138;-68
2023/09/26 04:06:12;;;;;;;8.93;5.97;;;14.30;99.90;;;;;;5105655;28;20032;-68
2023/09/26 04:08:38;;;;;;;7.40;5.63;;;14.30;99.90;;;;;;5105717;28;20506;-68
2023/09/26 04:11:03;;;;;;;7.38;5.85;;;14.20;99.90;;;;;;5065442;28;1158964;-68
2023/09/26 04:13:29;;;;;;;8.18;6.18;;;14.20;99.90;;;;;;5105928;28;20495;-68
2023/09/26 04:15:55;;;;;;;8.35;6.13;;;14.20;99.90;;;;;;5107118;28;20039;-68
2023/09/26 04:18:22;;;;;;;10.10;6.15;;;14.20;99.90;;;;;;5105497;28;20027;-68
2023/09/26 04:20:51;;;;;;;10.13;6.50;;;14.20;99.90;;;;;;5105206;28;20033;-68
2023/09/26 04:23:17;;;;;;;12.52;7.90;;;14.20;99.90;;;;;;5106535;28;20027;-68
2023/09/26 04:25:44;;;;;;;8.43;6.30;;;14.20;99.90;;;;;;5100213;28;20081;-68
2023/09/26 04:28:09;;;;;;;11.07;7.72;;;14.20;99.90;;;;;;5106142;28;20028;-68
2023/09/26 04:30:39;;;;;;;13.10;9.02;;;14.20;99.90;;;;;;5106470;28;20040;-68
2023/09/26 04:33:09;;;;;;;14.77;9.18;;;14.10;99.90;;;;;;5106313;28;20046;-68
2023/09/26 04:35:35;;;;;;;16.88;9.98;;;14.10;99.90;;;;;;5105001;28;20035;-68
2023/09/26 04:38:02;;;;;;;15.77;9.68;;;14.10;99.90;;;;;;5103309;28;20138;-68
2023/09/26 04:40:28;;;;;;;20.45;11.15;;;14.10;99.90;;;;;;5106600;28;20027;-68
2023/09/26 04:43:05;;;;;;;18.35;10.95;;;14.00;99.90;;;;;;5103694;28;20126;-68
2023/09/26 04:45:31;;;;;;;18.55;11.93;;;14.10;99.90;;;;;;5099128;28;20058;-68
2023/09/26 04:48:01;;;;;;;22.23;12.25;;;14.10;99.90;;;;;;5103238;28;20031;-68
2023/09/26 04:50:29;;;;;;;21.40;12.07;;;14.10;99.90;;;;;;5106282;28;20096;-68
2023/09/26 04:52:56;;;;;;;26.75;14.65;;;14.10;99.90;;;;;;5102664;28;20074;-68
2023/09/26 04:55:22;;;;;;;23.38;13.13;;;14.10;99.90;;;;;;5103334;28;20035;-68
2023/09/26 04:57:48;;;;;;;26.52;15.15;;;14.10;99.90;;;;;;5105685;28;20096;-68
2023/09/26 05:00:17;;;;;;;28.75;15.23;;;14.10;99.90;;;;;;5104207;28;20035;-68
2023/09/26 05:02:44;;;;;;;31.50;16.83;;;14.10;99.90;;;;;;5104700;28;20054;-68
2023/09/26 05:05:12;;;;;;;31.77;17.55;;;14.20;99.90;;;;;;5104763;28;20028;-68
2023/09/26 05:07:41;;;;;;;37.22;18.90;;;14.20;99.90;;;;;;5099198;28;20390;-68
2023/09/26 05:10:07;;;;;;;34.85;18.10;;;14.10;99.90;;;;;;5106061;28;20031;-68
2023/09/26 05:12:37;;;;;;;35.83;18.52;;;14.20;99.90;;;;;;5105646;28;20043;-68
2023/09/26 05:15:05;;;;;;;34.67;19.13;;;14.20;99.90;;;;;;5105381;28;20047;-68
2023/09/26 05:17:31;;;;;;;43.03;22.52;;;14.20;99.90;;;;;;5102293;28;20084;-68
2023/09/26 05:19:57;;;;;;;42.00;20.85;;;14.20;99.90;;;;;;5105226;28;20670;-68
2023/09/26 05:22:23;;;;;;;39.88;21.45;;;14.20;99.90;;;;;;5105591;28;20110;-68
2023/09/26 05:24:48;;;;;;;48.95;22.15;;;14.20;99.90;;;;;;5104755;28;20035;-68
2023/09/26 05:27:14;;;;;;;41.50;22.13;;;14.10;99.90;;;;;;5104344;28;20031;-68
2023/09/26 05:29:40;;;;;;;45.28;21.13;;;14.20;99.90;;;;;;5105381;28;20046;-68
2023/09/26 05:32:06;;;;;;;39.83;21.17;;;14.10;99.90;;;;;;5102175;28;20043;-68
2023/09/26 05:34:32;;;;;;;34.60;19.13;;;14.20;99.90;;;;;;5105079;28;20034;-68
2023/09/26 05:36:57;;;;;;;40.63;20.70;;;14.20;99.90;;;;;;5104830;28;20046;-68
2023/09/26 05:39:24;;;;;;;42.50;20.35;;;14.20;99.90;;;;;;5104374;28;20035;-68
2023/09/26 05:41:50;;;;;;;36.55;17.95;;;14.20;99.90;;;;;;5102758;28;20035;-68
2023/09/26 05:44:17;;;;;;;35.67;18.08;;;14.20;99.90;;;;;;5100097;28;20028;-68
2023/09/26 05:46:43;;;;;;;32.72;17.30;;;14.30;99.90;;;;;;5104552;28;20024;-68
2023/09/26 05:49:09;;;;;;;37.38;19.02;;;14.30;99.90;;;;;;5105678;28;20032;-68
2023/09/26 05:51:35;;;;;;;35.55;18.92;;;14.40;99.90;;;;;;5105205;28;20034;-68
2023/09/26 05:54:00;;;;;;;39.63;19.88;;;14.50;99.90;;;;;;5104928;28;20046;-68
2023/09/26 05:56:27;;;;;;;38.88;19.42;;;14.60;99.90;;;;;;5102702;28;20131;-68
2023/09/26 05:58:53;;;;;;;36.00;18.33;;;14.70;99.90;;;;;;5105075;28;20036;-68
2023/09/26 06:01:19;;;;;;;31.65;17.08;;;14.70;99.90;;;;;;5104923;28;20380;-68
2023/09/26 06:03:44;;;;;;;35.17;19.77;;;14.80;99.90;;;;;;5105326;28;20028;-68
2023/09/26 06:06:10;;;;;;;33.50;17.13;;;14.80;99.90;;;;;;5105185;28;20032;-68
2023/09/26 06:08:36;;;;;;;41.03;18.27;;;14.90;99.90;;;;;;5104451;28;20023;-68
2023/09/26 06:11:04;;;;;;;31.20;16.38;;;14.90;99.90;;;;;;5104597;28;20035;-68
2023/09/26 06:13:31;;;;;;;28.70;16.05;;;15.00;99.90;;;;;;5099048;28;20032;-68
2023/09/26 06:15:56;;;;;;;25.67;14.68;;;15.10;99.90;;;;;;5105277;28;20047;-68
2023/09/26 06:18:22;;;;;;;23.85;14.13;;;15.20;99.90;;;;;;5102383;28;20475;-68
2023/09/26 06:20:48;;;;;;;26.33;13.85;;;15.30;99.90;;;;;;5103503;28;20038;-68
2023/09/26 06:23:14;;;;;;;21.88;13.68;;;15.30;99.90;;;;;;5104591;28;20495;-68
2023/09/26 06:25:40;;;;;;;27.92;15.98;;;15.40;99.90;;;;;;5104725;28;20494;-68
2023/09/26 06:28:07;;;;;;;26.58;15.10;;;15.50;99.90;;;;;;5104982;28;20042;-68
2023/09/26 06:30:33;;;;;;;25.25;12.85;;;15.60;99.90;;;;;;5104883;28;20084;-68
2023/09/26 06:32:59;;;;;;;25.33;13.40;;;15.60;99.90;;;;;;5104220;28;20157;-68
2023/09/26 06:35:24;;;;;;;24.73;13.32;;;15.70;99.90;;;;;;5104984;28;20453;-68
2023/09/26 06:37:50;;;;;;;27.65;15.18;;;15.80;99.90;;;;;;5102694;28;20062;-68
2023/09/26 06:40:16;;;;;;;21.75;14.07;;;15.80;99.90;;;;;;5100423;28;20400;-68
2023/09/26 06:42:42;;;;;;;24.67;15.00;;;15.90;99.90;;;;;;5102155;28;20600;-68
2023/09/26 06:45:09;;;;;;;22.42;13.10;;;16.00;99.90;;;;;;5103700;28;20031;-68
2023/09/26 06:47:34;;;;;;;24.95;15.70;;;16.00;99.90;;;;;;5104374;28;20037;-68
2023/09/26 06:50:00;;;;;;;22.50;14.27;;;16.10;99.90;;;;;;5101849;28;20665;-69
2023/09/26 06:52:26;;;;;;;27.25;15.15;;;16.10;99.90;;;;;;5102244;28;20036;-68
2023/09/26 06:54:52;;;;;;;28.58;15.07;;;16.20;99.90;;;;;;5104152;28;20036;-67
2023/09/26 06:57:20;;;;;;;39.95;16.27;;;16.20;99.90;;;;;;5103446;28;20540;-68
2023/09/26 06:59:52;;;;;;;23.75;15.18;;;16.30;99.90;;;;;;5104518;28;20039;-67
2023/09/26 07:02:19;;;;;;;24.45;14.18;;;16.30;99.90;;;;;;5102172;28;20031;-68
2023/09/26 07:04:46;;;;;;;25.60;14.85;;;16.40;99.90;;;;;;5105238;28;20103;-68
2023/09/26 07:07:12;;;;;;;26.30;14.82;;;16.40;99.90;;;;;;5106740;28;20028;-68
2023/09/26 07:09:39;;;;;;;23.13;14.90;;;16.50;99.90;;;;;;5101318;28;20080;-68
2023/09/26 07:12:05;;;;;;;25.88;15.18;;;16.50;99.90;;;;;;5107993;28;20043;-68
2023/09/26 07:14:32;;;;;;;20.80;13.27;;;16.60;99.90;;;;;;5106303;28;20040;-68
2023/09/26 07:16:58;;;;;;;18.42;11.75;;;16.60;99.90;;;;;;5105535;28;20556;-68
2023/09/26 07:19:29;;;;;;;17.38;11.05;;;16.80;99.90;;;;;;5099617;28;20032;-68
2023/09/26 07:21:55;;;;;;;22.08;13.57;;;17.00;99.90;;;;;;5107758;28;20138;-68
2023/09/26 07:24:20;;;;;;;19.42;12.20;;;17.10;99.90;;;;;;5107642;28;20126;-68
2023/09/26 07:26:46;;;;;;;17.80;11.82;;;17.10;99.90;;;;;;5102084;28;20024;-68
2023/09/26 07:29:12;;;;;;;17.52;11.98;;;17.30;99.90;;;;;;5101276;28;20111;-68
2023/09/26 07:31:39;;;;;;;19.50;11.27;;;17.40;99.90;;;;;;5107989;28;20111;-69
2023/09/26 07:34:05;;;;;;;16.33;9.98;;;17.50;99.90;;;;;;5103485;28;20123;-69
2023/09/26 07:36:32;;;;;;;14.80;10.05;;;17.50;99.90;;;;;;5105911;28;20147;-69
2023/09/26 07:38:58;;;;;;;14.52;10.27;;;17.60;99.90;;;;;;5107570;28;20058;-69
2023/09/26 07:41:23;;;;;;;13.77;10.05;;;17.60;99.90;;;;;;5105400;28;20063;-69
2023/09/26 07:43:49;;;;;;;13.50;10.32;;;17.70;99.90;;;;;;5105419;28;20027;-68
2023/09/26 07:46:15;;;;;;;11.00;8.52;;;17.70;99.90;;;;;;5102889;28;20544;-69
2023/09/26 07:48:42;;;;;;;10.73;7.72;;;17.70;99.90;;;;;;5105141;28;20023;-68
2023/09/26 07:51:09;;;;;;;11.43;9.38;;;17.70;99.90;;;;;;5103967;28;20039;-68
2023/09/26 07:53:35;;;;;;;14.55;9.63;;;17.70;99.90;;;;;;5107498;28;20031;-68
2023/09/26 07:56:01;;;;;;;13.40;8.77;;;17.70;99.90;;;;;;5106588;28;20758;-68
2023/09/26 07:58:28;;;;;;;10.25;7.70;;;17.80;99.90;;;;;;5104750;28;20030;-68
2023/09/26 08:00:56;;;;;;;13.02;9.43;;;17.80;99.90;;;;;;5106819;28;20495;-68
2023/09/26 08:03:24;;;;;;;12.77;9.05;;;17.80;99.90;;;;;;5106757;28;20028;-68
2023/09/26 08:05:57;;;;;;;11.15;7.68;;;17.90;99.90;;;;;;5102605;28;20035;-67
2023/09/26 08:08:23;;;;;;;9.32;7.18;;;17.90;99.90;;;;;;5105104;28;20055;-69
2023/09/26 08:10:49;;;;;;;9.98;7.60;;;17.90;99.90;;;;;;5102852;28;20077;-68
2023/09/26 08:13:15;;;;;;;10.73;7.78;;;18.00;99.90;;;;;;5107067;28;20559;-68
2023/09/26 08:15:40;;;;;;;12.27;8.10;;;18.10;99.90;;;;;;5101398;28;20036;-68
2023/09/26 08:18:06;;;;;;;12.05;8.38;;;18.20;99.90;;;;;;5105891;28;20827;-68
2023/09/26 08:20:32;;;;;;;10.27;8.02;;;18.30;99.90;;;;;;5102760;28;20123;-69
2023/09/26 08:22:58;;;;;;;10.48;7.25;;;18.40;99.90;;;;;;5103810;28;20096;-68
2023/09/26 08:25:24;;;;;;;8.70;6.40;;;18.50;99.90;;;;;;5102192;28;20031;-68
2023/09/26 08:27:50;;;;;;;10.07;7.43;;;18.50;99.90;;;;;;5101784;28;20491;-68
2023/09/26 08:30:16;;;;;;;7.78;6.03;;;18.60;99.90;;;;;;5103338;28;20047;-69
2023/09/26 08:32:42;;;;;;;12.07;7.15;;;18.70;99.90;;;;;;5106560;28;20038;-68
2023/09/26 08:35:09;;;;;;;8.90;6.05;;;18.80;99.90;;;;;;5099103;28;20036;-69
2023/09/26 08:37:37;;;;;;;8.05;6.63;;;18.90;99.90;;;;;;5106411;28;20403;-69
2023/09/26 08:40:09;;;;;;;11.20;7.18;;;19.00;99.90;;;;;;5106511;28;20095;-69
2023/09/26 08:42:36;;;;;;;10.38;6.70;;;19.10;99.90;;;;;;5105570;28;20035;-69
2023/09/26 08:45:03;;;;;;;7.93;6.30;;;19.00;99.90;;;;;;5106230;28;20031;-69
2023/09/26 08:47:28;;;;;;;7.75;6.50;;;19.10;99.90;;;;;;5101905;28;20829;-69
2023/09/26 08:49:56;;;;;;;10.35;6.60;;;19.30;99.90;;;;;;5103180;28;20027;-69
2023/09/26 08:52:22;;;;;;;7.90;5.78;;;19.60;99.90;;;;;;5101365;28;20072;-68
2023/09/26 08:54:48;;;;;;;6.57;5.57;;;20.10;99.90;;;;;;5106132;28;20050;-69
2023/09/26 08:57:16;;;;;;;7.72;5.63;;;20.70;99.90;;;;;;5101724;28;20032;-69
2023/09/26 08:59:45;;;;;;;7.30;5.10;;;21.30;98.90;;;;;;5106113;28;20101;-69
2023/09/26 09:02:11;;;;;;;7.13;5.88;;;21.70;97.80;;;;;;5105192;28;20039;-69
2023/09/26 09:04:44;;;;;;;7.18;5.38;;;21.80;96.60;;;;;;5105939;28;20034;-69
2023/09/26 09:07:13;;;;;;;6.05;4.82;;;22.00;96.00;;;;;;5105923;28;20143;-69
2023/09/26 09:10:07;;;;;;;6.10;4.70;;;22.00;95.90;;;;;;5104205;28;20028;-69
2023/09/26 09:12:38;;;;;;;6.65;5.15;;;21.90;96.10;;;;;;5099578;28;20047;-69
2023/09/26 09:15:19;;;;;;;5.72;4.85;;;21.80;95.90;;;;;;5098646;28;20028;-69
2023/09/26 09:17:46;;;;;;;6.20;4.80;;;21.60;95.70;;;;;;5103981;28;20035;-68
2023/09/26 09:20:18;;;;;;;7.47;4.75;;;21.60;95.70;;;;;;5105547;28;20023;-69
2023/09/26 09:22:46;;;;;;;4.78;3.78;;;21.50;95.80;;;;;;5105313;28;20151;-68
2023/09/26 09:25:12;;;;;;;7.20;4.57;;;21.50;96.00;;;;;;5105396;28;20031;-69
2023/09/26 09:27:43;;;;;;;6.60;5.05;;;21.40;96.30;;;;;;5105266;28;20027;-69
2023/09/26 09:30:15;;;;;;;4.95;3.60;;;21.50;95.90;;;;;;5105928;28;20031;-69
2023/09/26 09:32:41;;;;;;;5.00;4.13;;;21.40;95.90;;;;;;5105451;28;20036;-68
2023/09/26 09:35:13;;;;;;;5.63;4.20;;;21.40;95.70;;;;;;5105268;28;20059;-69
2023/09/26 09:37:42;;;;;;;6.15;4.60;;;21.50;95.60;;;;;;5096267;28;20460;-69
2023/09/26 09:40:10;;;;;;;6.10;5.30;;;21.50;95.80;;;;;;5105200;28;20039;-69
2023/09/26 09:42:36;;;;;;;6.50;3.65;;;21.60;95.20;;;;;;5105111;28;20683;-69
2023/09/26 09:45:04;;;;;;;6.20;4.50;;;21.50;95.10;;;;;;5104928;28;20032;-68
2023/09/26 09:47:33;;;;;;;6.22;4.03;;;21.60;95.00;;;;;;5105202;28;20035;-69
2023/09/26 09:50:01;;;;;;;5.47;3.92;;;21.50;95.40;;;;;;5101911;28;20036;-69
2023/09/26 09:52:33;;;;;;;5.07;3.50;;;21.50;95.80;;;;;;5099611;28;20636;-69
2023/09/26 09:55:03;;;;;;;5.82;4.63;;;21.60;95.50;;;;;;5105240;28;20027;-69
2023/09/26 09:57:33;;;;;;;4.93;3.70;;;21.70;95.80;;;;;;5101346;28;20027;-69
2023/09/26 10:00:01;;;;;;;5.00;3.50;;;21.80;95.40;;;;;;5103199;28;20020;-69
2023/09/26 10:02:27;;;;;;;4.18;3.67;;;21.80;95.30;;;;;;5105037;28;20065;-69
2023/09/26 10:04:55;;;;;;;6.20;3.90;;;21.90;95.50;;;;;;5103629;28;20470;-69
2023/09/26 10:07:25;;;;;;;7.15;3.85;;;22.00;95.70;;;;;;5103874;28;20658;-69
2023/09/26 10:09:54;;;;;;;4.75;3.25;;;22.20;94.90;;;;;;5105493;28;20031;-69
2023/09/26 10:12:20;;;;;;;5.55;3.53;;;22.60;94.70;;;;;;5101196;28;20154;-69
2023/09/26 10:14:46;;;;;;;3.95;3.13;;;23.30;93.80;;;;;;5103534;28;20031;-69
2023/09/26 10:17:14;;;;;;;5.75;3.70;;;23.60;92.80;;;;;;5098108;28;20051;-69
2023/09/26 10:19:40;;;;;;;8.95;3.88;;;23.80;92.90;;;;;;5104877;28;20039;-69
2023/09/26 10:22:20;;;;;;;5.88;3.47;;;23.90;92.40;;;;;;5104781;28;20035;-69
2023/09/26 10:24:46;;;;;;;6.00;3.92;;;24.10;92.10;;;;;;5104435;28;20573;-69
2023/09/26 10:27:12;;;;;;;3.83;3.53;;;24.90;90.80;;;;;;5104680;28;20742;-69
2023/09/26 10:29:38;;;;;;;4.05;3.10;;;25.70;89.20;;;;;;5105114;28;20084;-69
2023/09/26 10:32:06;;;;;;;6.63;4.03;;;26.50;87.20;;;;;;5105027;28;20027;-69
2023/09/26 10:34:36;;;;;;;9.23;3.50;;;26.50;85.20;;;;;;5102289;28;20104;-69
2023/09/26 10:37:07;;;;;;;6.43;3.80;;;25.90;86.40;;;;;;5104421;28;20096;-69
2023/09/26 10:39:37;;;;;;;6.05;3.80;;;25.50;88.50;;;;;;5104359;28;20123;-69
2023/09/26 10:42:19;;;;;;;5.05;3.47;;;25.40;89.00;;;;;;5105147;28;20118;-68
2023/09/26 10:44:46;;;;;;;3.72;3.42;;;25.70;86.90;;;;;;5107547;28;20031;-70
2023/09/26 10:47:16;;;;;;;9.20;4.35;;;25.70;87.30;;;;;;5106245;28;20031;-70
2023/09/26 10:49:45;;;;;;;4.35;3.53;;;25.50;87.50;;;;;;5107057;28;20554;-69
2023/09/26 10:52:12;;;;;;;4.85;2.90;;;25.20;87.80;;;;;;5103113;28;20039;-70
2023/09/26 10:54:39;;;;;;;8.88;3.95;;;25.10;88.40;;;;;;5108468;28;20046;-69
2023/09/26 10:57:06;;;;;;;5.55;3.50;;;25.10;87.00;;;;;;5108124;28;20798;-69
2023/09/26 10:59:33;;;;;;;6.05;3.60;;;25.20;88.00;;;;;;5108553;28;20126;-69
2023/09/26 11:02:01;;;;;;;6.13;3.65;;;25.10;88.40;;;;;;5105436;28;20031;-69
2023/09/26 11:04:31;;;;;;;8.32;4.20;;;25.00;88.80;;;;;;5103358;28;20038;-69
2023/09/26 11:07:05;;;;;;;5.80;4.15;;;24.80;90.10;;;;;;5105109;28;20056;-68
2023/09/26 11:09:33;;;;;;;9.27;4.20;;;24.50;90.20;;;;;;5108157;28;20032;-69
2023/09/26 11:12:00;;;;;;;5.43;3.30;;;24.40;90.50;;;;;;5108217;28;20032;-69
2023/09/26 11:14:26;;;;;;;5.93;3.75;;;24.40;90.60;;;;;;5106942;28;20027;-69
2023/09/26 11:16:53;;;;;;;4.15;3.10;;;24.50;90.90;;;;;;5104680;28;20035;-68
2023/09/26 11:19:22;;;;;;;5.85;4.10;;;24.50;90.80;;;;;;5108238;28;20027;-69
2023/09/26 11:21:50;;;;;;;3.75;3.22;;;24.40;90.50;;;;;;5108080;28;20084;-69
2023/09/26 11:24:27;;;;;;;6.13;3.70;;;24.40;90.80;;;;;;5106726;28;20915;-70
2023/09/26 11:26:56;;;;;;;8.32;3.85;;;24.50;90.70;;;;;;5101816;27;20032;-69
2023/09/26 11:29:24;;;;;;;6.60;3.83;;;24.40;90.50;;;;;;5107593;28;20035;-69
2023/09/26 11:31:51;;;;;;;7.32;3.80;;;24.50;90.90;;;;;;5108096;28;20077;-69
2023/09/26 11:34:19;;;;;;;5.93;3.95;;;24.40;90.60;;;;;;5107639;28;20043;-69
2023/09/26 11:36:44;;;;;;;5.45;3.60;;;24.30;91.10;;;;;;5107435;28;20522;-69
2023/09/26 11:39:21;;;;;;;4.60;3.13;;;24.40;91.00;;;;;;5106533;28;20032;-69
2023/09/26 11:41:47;;;;;;;5.78;3.50;;;24.50;91.00;;;;;;5107727;28;20031;-69
2023/09/26 11:44:15;;;;;;;4.65;3.22;;;24.50;90.30;;;;;;5105329;28;20028;-69
2023/09/26 11:46:49;;;;;;;7.32;4.10;;;24.50;90.50;;;;;;5105003;28;20455;-69
2023/09/26 11:49:17;;;;;;;5.90;3.88;;;24.60;90.20;;;;;;5107852;28;20032;-69
2023/09/26 11:51:43;;;;;;;5.15;3.75;;;24.60;90.10;;;;;;5102573;28;20027;-69
2023/09/26 11:54:10;;;;;;;5.45;3.97;;;24.70;90.60;;;;;;5107195;28;20028;-69
2023/09/26 11:56:36;;;;;;;5.75;3.38;;;24.70;90.20;;;;;;5107401;28;20125;-69
2023/09/26 11:59:06;;;;;;;6.78;3.80;;;24.70;90.40;;;;;;5107267;28;20092;-69
2023/09/26 12:01:33;;;;;;;6.22;3.50;;;24.70;90.40;;;;;;5105996;28;20492;-69
2023/09/26 12:04:06;;;;;;;5.05;3.78;;;24.70;90.00;;;;;;5101515;28;20091;-69
2023/09/26 12:06:34;;;;;;;6.40;3.70;;;24.70;90.00;;;;;;5103732;28;20042;-68
2023/09/26 12:09:00;;;;;;;4.13;3.72;;;24.70;90.40;;;;;;5105036;28;20096;-70
2023/09/26 12:11:26;;;;;;;7.13;3.47;;;24.70;90.40;;;;;;5104615;28;20028;-69
2023/09/26 12:13:52;;;;;;;4.30;3.60;;;24.70;90.50;;;;;;5102517;28;20116;-69
2023/09/26 12:16:18;;;;;;;4.70;3.42;;;24.70;90.30;;;;;;5106785;28;20062;-69
2023/09/26 12:18:43;;;;;;;3.85;3.30;;;24.70;90.40;;;;;;5102903;28;20398;-69
2023/09/26 12:21:09;;;;;;;6.30;3.45;;;24.60;90.40;;;;;;5106752;28;20066;-68
2023/09/26 12:23:35;;;;;;;5.80;3.80;;;24.70;90.60;;;;;;5106588;28;20042;-69
2023/09/26 12:26:01;;;;;;;5.18;3.47;;;24.70;90.30;;;;;;5106892;28;20027;-69
2023/09/26 12:28:27;;;;;;;4.47;3.58;;;24.90;90.20;;;;;;5106143;28;20779;-69
2023/09/26 12:30:53;;;;;;;5.18;3.67;;;24.90;90.50;;;;;;5106702;28;20027;-69
2023/09/26 12:33:20;;;;;;;7.78;3.78;;;24.80;89.40;;;;;;5106471;28;20038;-69
2023/09/26 12:35:45;;;;;;;6.82;4.15;;;24.80;90.10;;;;;;5106599;28;20672;-68
2023/09/26 12:38:11;;;;;;;5.65;4.13;;;24.70;90.00;;;;;;5102293;28;20035;-69
2023/09/26 12:40:37;;;;;;;7.53;3.13;;;24.60;90.50;;;;;;5106105;28;20046;-69